Time;durP1;ratioP1;P1;durP2;ratioP2;P2;SDS_P1;SDS_P2;PMS_P1;PMS_P2;Temp;Humidity;BMP_temperature;BMP_pressure;BME280_temperature;BME280_humidity;BME280_pressure;Samples;Min_cycle;Max_cycle;Signal;HPM_P1;HPM_P2
2021/04/03 00:00:36;;;;;;;4.95;1.52;;;7.70;53.50;;;;;;4905529;29;20059;-63
2021/04/03 00:03:04;;;;;;;2.53;0.68;;;7.70;54.00;;;;;;4907272;29;20229;-63
2021/04/03 00:05:33;;;;;;;5.18;1.77;;;7.70;53.90;;;;;;4908561;29;20257;-62
2021/04/03 00:08:06;;;;;;;0.95;0.52;;;7.70;54.50;;;;;;4906921;29;20064;-62
2021/04/03 00:10:41;;;;;;;1.85;0.52;;;7.70;54.30;;;;;;4905787;29;20104;-62
2021/04/03 00:13:12;;;;;;;1.42;0.40;;;7.70;54.50;;;;;;4905825;29;20336;-61
2021/04/03 00:15:39;;;;;;;3.15;0.73;;;7.70;54.80;;;;;;4904598;29;20114;-63
2021/04/03 00:18:06;;;;;;;1.55;0.75;;;7.70;54.60;;;;;;4905048;29;20052;-63
2021/04/03 00:20:36;;;;;;;2.83;0.82;;;7.70;54.50;;;;;;4905601;29;20059;-62
2021/04/03 00:23:04;;;;;;;2.78;0.60;;;7.70;54.70;;;;;;4905962;29;20328;-63
2021/04/03 00:25:34;;;;;;;6.55;0.60;;;7.80;54.80;;;;;;4904348;29;20044;-62
2021/04/03 00:28:01;;;;;;;4.07;1.40;;;7.80;55.20;;;;;;4905110;29;20062;-63
2021/04/03 00:30:29;;;;;;;2.25;0.55;;;7.80;55.90;;;;;;4904820;29;20059;-62
2021/04/03 00:32:58;;;;;;;3.83;1.00;;;7.80;56.70;;;;;;4905470;29;20116;-62
2021/04/03 00:35:29;;;;;;;0.90;0.55;;;7.70;62.20;;;;;;4905137;29;20714;-63
2021/04/03 00:37:59;;;;;;;2.47;1.23;;;7.40;64.40;;;;;;4906141;29;21081;-62
2021/04/03 00:40:34;;;;;;;1.38;0.60;;;7.20;62.80;;;;;;4905114;29;20280;-63
2021/04/03 00:43:02;;;;;;;1.30;0.45;;;7.10;63.40;;;;;;4905569;29;20065;-63
2021/04/03 00:45:30;;;;;;;1.45;0.50;;;7.00;62.90;;;;;;4904128;29;20044;-62
2021/04/03 00:47:57;;;;;;;2.33;0.70;;;7.00;63.50;;;;;;4905503;29;20075;-63
2021/04/03 00:50:28;;;;;;;5.25;0.75;;;6.90;64.30;;;;;;4903810;29;20608;-62
2021/04/03 00:52:56;;;;;;;2.50;0.60;;;6.80;64.40;;;;;;4897997;29;20068;-63
2021/04/03 00:55:25;;;;;;;1.80;0.70;;;6.80;65.10;;;;;;4905427;29;20579;-63
2021/04/03 00:57:55;;;;;;;3.53;0.70;;;6.70;65.40;;;;;;4907705;29;20074;-62
2021/04/03 01:00:25;;;;;;;2.50;0.85;;;6.70;66.10;;;;;;4917711;29;20791;-63
2021/04/03 01:02:52;;;;;;;2.35;1.00;;;6.60;65.90;;;;;;4906640;29;20127;-62
2021/04/03 01:05:23;;;;;;;4.28;1.13;;;6.50;66.10;;;;;;4913873;29;20052;-62
2021/04/03 01:07:53;;;;;;;3.58;0.93;;;6.50;66.60;;;;;;4906102;29;20165;-63
2021/04/03 01:10:25;;;;;;;3.30;0.52;;;6.50;66.50;;;;;;4897976;29;20450;-62
2021/04/03 01:13:12;;;;;;;2.65;0.52;;;6.40;66.90;;;;;;4899630;29;20060;-62
2021/04/03 01:15:46;;;;;;;5.82;0.63;;;6.40;66.90;;;;;;4906082;29;20408;-62
2021/04/03 01:18:20;;;;;;;4.03;1.13;;;6.30;67.10;;;;;;4906102;29;20283;-61
2021/04/03 01:21:02;;;;;;;0.60;0.25;;;6.30;67.30;;;;;;3730373;29;10023340;-62
2021/04/03 01:24:05;;;;;;;3.08;1.25;;;6.20;67.70;;;;;;3377310;29;10002054;-63
2021/04/03 01:26:58;;;;;;;3.35;0.93;;;6.00;68.20;;;;;;4905718;29;20413;-63
2021/04/03 01:30:03;;;;;;;3.40;0.80;;;5.90;68.80;;;;;;4905158;29;20722;-63
2021/04/03 01:32:48;;;;;;;4.90;0.68;;;5.70;69.30;;;;;;4859135;29;20345;-63
2021/04/03 01:35:22;;;;;;;6.18;0.95;;;5.50;70.10;;;;;;4900799;29;20085;-62
2021/04/03 01:37:54;;;;;;;2.80;0.93;;;5.40;70.70;;;;;;4905507;29;20108;-62
2021/04/03 01:40:24;;;;;;;4.72;1.00;;;5.40;71.00;;;;;;4921406;29;20503;-63
2021/04/03 01:43:02;;;;;;;7.22;0.95;;;5.30;71.20;;;;;;4906048;29;20080;-62
2021/04/03 01:45:34;;;;;;;3.88;1.00;;;5.20;71.80;;;;;;4906276;29;20656;-62
2021/04/03 01:48:06;;;;;;;2.58;0.85;;;5.20;72.00;;;;;;4905481;29;20060;-62
2021/04/03 01:50:34;;;;;;;1.90;0.80;;;5.10;71.80;;;;;;4908215;29;20088;-63
2021/04/03 01:53:03;;;;;;;5.55;0.90;;;5.00;72.10;;;;;;4905187;29;20061;-63
2021/04/03 01:55:31;;;;;;;1.55;0.77;;;5.00;72.30;;;;;;4906618;29;20051;-62
2021/04/03 01:57:59;;;;;;;4.32;1.73;;;4.90;72.40;;;;;;4896662;29;20280;-62
2021/04/03 02:00:28;;;;;;;3.63;1.13;;;4.90;72.70;;;;;;4893469;29;20064;-62
2021/04/03 02:03:01;;;;;;;4.72;1.30;;;4.80;72.60;;;;;;4904763;29;20053;-61
2021/04/03 02:05:33;;;;;;;1.50;0.82;;;4.70;73.20;;;;;;4902822;29;20044;-63
2021/04/03 02:08:24;;;;;;;6.15;1.45;;;4.70;73.00;;;;;;4896184;29;20059;-62
2021/04/03 02:11:07;;;;;;;1.80;1.08;;;4.60;73.80;;;;;;4905766;29;20044;-63
2021/04/03 02:13:39;;;;;;;5.18;1.05;;;4.50;74.40;;;;;;4905371;29;20468;-62
2021/04/03 02:16:07;;;;;;;3.10;1.20;;;4.40;74.90;;;;;;4906237;29;20312;-62
2021/04/03 02:18:39;;;;;;;9.40;1.75;;;4.30;75.00;;;;;;4905733;29;20079;-63
2021/04/03 02:21:09;;;;;;;3.50;0.82;;;4.20;75.20;;;;;;4891512;29;20044;-63
2021/04/03 02:23:42;;;;;;;1.65;0.80;;;4.20;75.70;;;;;;4907219;29;20048;-62
2021/04/03 02:26:10;;;;;;;1.70;0.77;;;4.20;75.80;;;;;;4907129;29;20063;-62
2021/04/03 02:28:38;;;;;;;9.32;1.50;;;4.10;75.70;;;;;;4908368;29;20112;-62
2021/04/03 02:31:06;;;;;;;5.18;1.40;;;4.00;75.70;;;;;;4907511;29;20048;-62
2021/04/03 02:33:33;;;;;;;2.70;1.02;;;3.90;75.60;;;;;;4907479;29;20366;-63
2021/04/03 02:36:01;;;;;;;4.68;1.30;;;3.90;75.60;;;;;;4907345;29;20053;-62
2021/04/03 02:38:35;;;;;;;2.22;0.73;;;3.90;75.80;;;;;;4907616;29;20272;-63
2021/04/03 02:41:14;;;;;;;2.70;0.88;;;3.80;75.70;;;;;;4921701;29;20100;-62
2021/04/03 02:43:54;;;;;;;3.20;1.10;;;3.80;76.50;;;;;;4906952;29;20052;-62
2021/04/03 02:46:28;;;;;;;7.00;1.08;;;3.70;77.00;;;;;;4908762;29;20107;-62
2021/04/03 02:48:58;;;;;;;3.40;0.77;;;3.60;77.20;;;;;;4910527;29;20344;-61
2021/04/03 02:51:39;;;;;;;3.05;1.33;;;3.60;77.30;;;;;;4922565;29;20552;-62
2021/04/03 02:54:09;;;;;;;2.70;1.13;;;3.50;77.50;;;;;;4922888;29;20274;-64
2021/04/03 02:56:38;;;;;;;2.72;1.08;;;3.50;77.90;;;;;;4907984;29;20052;-63
2021/04/03 02:59:07;;;;;;;2.40;0.60;;;3.40;78.00;;;;;;4906961;29;20055;-63
2021/04/03 03:01:34;;;;;;;3.72;0.73;;;3.40;78.30;;;;;;4903612;29;20616;-63
2021/04/03 03:04:09;;;;;;;2.10;0.50;;;3.50;78.80;;;;;;4906865;29;20127;-62
2021/04/03 03:06:38;;;;;;;1.88;0.82;;;3.60;78.80;;;;;;4900437;29;20060;-63
2021/04/03 03:09:09;;;;;;;3.28;0.77;;;3.80;78.10;;;;;;4908595;29;20217;-63
2021/04/03 03:11:38;;;;;;;7.65;0.95;;;4.00;77.40;;;;;;4908303;29;20072;-63
2021/04/03 03:14:08;;;;;;;4.30;0.90;;;4.10;76.80;;;;;;4907432;29;20115;-62
2021/04/03 03:16:38;;;;;;;4.10;1.33;;;4.10;76.90;;;;;;4907883;29;20172;-62
2021/04/03 03:19:07;;;;;;;5.82;1.27;;;4.00;77.10;;;;;;4906840;29;20132;-63
2021/04/03 03:21:35;;;;;;;3.50;0.60;;;4.10;77.00;;;;;;4909094;29;20452;-62
2021/04/03 03:24:11;;;;;;;2.25;0.75;;;4.10;76.70;;;;;;4906843;29;20067;-62
2021/04/03 03:26:40;;;;;;;2.47;0.77;;;4.20;76.10;;;;;;4908373;29;20070;-62
2021/04/03 03:29:10;;;;;;;4.20;0.70;;;4.30;75.50;;;;;;4907975;29;20061;-62
2021/04/03 03:31:39;;;;;;;2.67;0.70;;;4.50;75.00;;;;;;4908885;29;20404;-63
2021/04/03 03:34:08;;;;;;;2.63;0.73;;;4.60;74.60;;;;;;4908762;29;20094;-63
2021/04/03 03:36:39;;;;;;;2.97;1.00;;;4.70;74.30;;;;;;4914356;29;20411;-62
2021/04/03 03:39:10;;;;;;;3.42;0.98;;;4.70;73.70;;;;;;4899324;29;20327;-62
2021/04/03 03:41:38;;;;;;;2.17;0.87;;;4.70;74.20;;;;;;4908909;29;20213;-62
2021/04/03 03:44:10;;;;;;;1.35;0.70;;;4.60;74.30;;;;;;4908388;29;20076;-63
2021/04/03 03:46:39;;;;;;;3.25;0.80;;;4.60;74.60;;;;;;4920274;29;20064;-63
2021/04/03 03:49:06;;;;;;;7.45;1.17;;;4.60;74.80;;;;;;4913563;29;20277;-63
2021/04/03 03:51:37;;;;;;;3.92;1.08;;;4.60;75.10;;;;;;4906748;29;20060;-63
2021/04/03 03:54:11;;;;;;;1.75;0.70;;;4.70;75.00;;;;;;4910465;29;20128;-62
2021/04/03 03:56:38;;;;;;;5.38;1.20;;;4.80;74.50;;;;;;4905588;29;20044;-63
2021/04/03 03:59:05;;;;;;;1.55;0.93;;;4.80;74.50;;;;;;4905330;29;20049;-62
2021/04/03 04:01:35;;;;;;;2.63;1.00;;;4.90;74.10;;;;;;4903799;29;20060;-62
2021/04/03 04:04:10;;;;;;;1.98;0.60;;;4.90;73.90;;;;;;4920070;29;20045;-62
2021/04/03 04:06:42;;;;;;;4.00;0.50;;;5.00;73.80;;;;;;4907376;29;20085;-63
2021/04/03 04:09:10;;;;;;;6.50;1.27;;;5.10;73.50;;;;;;4905686;29;20298;-62
2021/04/03 04:11:43;;;;;;;2.83;1.00;;;5.20;72.90;;;;;;4903885;29;20055;-62
2021/04/03 04:14:19;;;;;;;4.75;1.00;;;5.00;73.70;;;;;;4904432;29;20059;-62
2021/04/03 04:16:52;;;;;;;3.40;0.90;;;5.10;73.30;;;;;;4920162;29;20371;-62
2021/04/03 04:19:24;;;;;;;2.38;0.90;;;5.20;73.30;;;;;;4904627;29;20230;-62
2021/04/03 04:21:54;;;;;;;2.50;0.95;;;5.20;73.60;;;;;;4906060;29;20052;-62
2021/04/03 04:24:25;;;;;;;2.42;0.82;;;5.20;73.30;;;;;;4919227;29;20048;-62
2021/04/03 04:26:53;;;;;;;1.95;0.75;;;5.10;73.80;;;;;;4919546;29;20075;-62
2021/04/03 04:29:20;;;;;;;2.85;0.70;;;5.10;74.00;;;;;;4897046;29;20419;-63
2021/04/03 04:31:49;;;;;;;2.83;1.08;;;5.20;73.80;;;;;;4903657;29;20268;-61
2021/04/03 04:34:22;;;;;;;3.75;1.10;;;5.20;74.00;;;;;;4905524;29;20048;-62
2021/04/03 04:36:53;;;;;;;4.47;0.82;;;5.40;73.60;;;;;;4906151;29;20339;-63
2021/04/03 04:39:28;;;;;;;9.32;0.80;;;5.30;73.70;;;;;;4906342;29;20375;-62
2021/04/03 04:41:55;;;;;;;3.20;0.80;;;5.40;73.40;;;;;;4921934;29;20091;-62
2021/04/03 04:44:23;;;;;;;6.00;1.65;;;5.40;73.50;;;;;;4905089;29;20453;-62
2021/04/03 04:46:52;;;;;;;5.07;2.10;;;5.40;73.90;;;;;;4906011;29;20056;-63
2021/04/03 04:49:20;;;;;;;5.13;1.10;;;5.40;74.10;;;;;;4902525;29;20076;-62
2021/04/03 04:51:48;;;;;;;3.28;1.00;;;5.40;73.80;;;;;;4906544;29;20044;-61
2021/04/03 04:54:26;;;;;;;1.35;0.65;;;5.40;73.90;;;;;;4904533;29;20516;-62
2021/04/03 04:56:57;;;;;;;;;;;5.60;73.10;;;;;;4907425;29;20060;-62
2021/04/03 04:59:34;;;;;;;3.97;1.20;;;5.60;72.60;;;;;;4921301;29;20707;-63
2021/04/03 05:02:09;;;;;;;5.40;1.67;;;5.70;72.20;;;;;;4894731;29;20048;-62
2021/04/03 05:04:36;;;;;;;3.20;0.90;;;5.70;71.70;;;;;;4906060;29;20049;-61
2021/04/03 05:07:06;;;;;;;3.63;1.25;;;5.70;71.90;;;;;;4906057;29;20078;-62
2021/04/03 05:09:33;;;;;;;7.78;1.60;;;5.70;71.50;;;;;;4913227;29;20071;-63
2021/04/03 05:12:04;;;;;;;4.20;1.02;;;5.70;71.60;;;;;;4905924;29;20240;-62
2021/04/03 05:14:37;;;;;;;9.38;2.10;;;5.70;71.60;;;;;;4906908;29;20130;-62
2021/04/03 05:17:04;;;;;;;3.97;1.23;;;5.70;70.90;;;;;;4906105;29;20063;-62
2021/04/03 05:19:31;;;;;;;3.83;1.40;;;5.70;70.80;;;;;;4906139;29;20056;-62
2021/04/03 05:21:58;;;;;;;7.78;1.63;;;5.50;70.50;;;;;;4906121;29;20292;-61
2021/04/03 05:24:35;;;;;;;2.50;0.90;;;5.50;70.40;;;;;;4906509;29;20052;-62
2021/04/03 05:27:04;;;;;;;3.80;0.98;;;5.50;70.40;;;;;;4906257;29;20076;-62
2021/04/03 05:29:31;;;;;;;3.10;1.00;;;5.40;70.20;;;;;;4905645;29;20125;-63
2021/04/03 05:31:58;;;;;;;2.10;0.75;;;5.40;69.80;;;;;;4906634;29;20060;-61
2021/04/03 05:34:25;;;;;;;4.68;1.67;;;5.50;69.60;;;;;;4906718;29;20056;-62
2021/04/03 05:36:52;;;;;;;7.10;2.65;;;5.60;69.40;;;;;;4905016;29;20139;-62
2021/04/03 05:39:19;;;;;;;3.80;1.58;;;5.60;68.60;;;;;;4904134;29;20340;-63
2021/04/03 05:41:46;;;;;;;6.28;2.22;;;5.70;67.80;;;;;;4904401;29;20068;-63
2021/04/03 05:44:15;;;;;;;7.35;2.70;;;5.70;67.80;;;;;;4904466;29;20052;-63
2021/04/03 05:46:43;;;;;;;7.43;2.53;;;5.70;67.20;;;;;;4922479;29;20055;-63
2021/04/03 05:49:17;;;;;;;6.70;1.65;;;5.80;66.90;;;;;;4921881;29;20079;-62
2021/04/03 05:51:45;;;;;;;5.80;1.40;;;5.80;66.80;;;;;;4909021;29;20076;-62
2021/04/03 05:54:12;;;;;;;3.67;0.98;;;5.90;66.40;;;;;;4907230;29;20048;-62
2021/04/03 05:56:39;;;;;;;8.52;1.77;;;5.90;66.00;;;;;;4908939;29;20048;-62
2021/04/03 05:59:06;;;;;;;2.22;0.85;;;5.90;66.10;;;;;;4908169;29;20056;-62
2021/04/03 06:01:37;;;;;;;4.88;1.30;;;5.90;65.60;;;;;;4904860;29;20153;-62
2021/04/03 06:04:05;;;;;;;5.10;1.25;;;5.90;65.40;;;;;;4906572;29;20125;-62
2021/04/03 06:06:33;;;;;;;3.85;0.90;;;5.90;65.50;;;;;;4908706;29;20080;-62
2021/04/03 06:09:02;;;;;;;2.13;0.82;;;5.90;65.40;;;;;;4907539;29;20119;-62
2021/04/03 06:11:44;;;;;;;5.05;1.35;;;5.90;65.30;;;;;;4907755;29;20255;-63
2021/04/03 06:14:11;;;;;;;5.22;1.33;;;5.90;65.40;;;;;;4907560;29;20355;-62
2021/04/03 06:16:42;;;;;;;5.75;1.38;;;6.00;65.60;;;;;;4908429;29;20079;-63
2021/04/03 06:19:15;;;;;;;4.18;1.20;;;6.00;65.30;;;;;;4905232;29;20063;-62
2021/04/03 06:21:45;;;;;;;3.70;1.27;;;6.10;64.80;;;;;;4907860;29;20060;-62
2021/04/03 06:24:21;;;;;;;4.22;0.68;;;6.10;64.80;;;;;;4908596;29;20064;-62
2021/04/03 06:27:02;;;;;;;6.15;1.42;;;6.20;64.50;;;;;;4908263;29;20060;-62
2021/04/03 06:29:39;;;;;;;7.15;1.77;;;6.20;64.40;;;;;;4909180;29;20311;-62
2021/04/03 06:32:10;;;;;;;1.95;0.65;;;6.30;64.70;;;;;;4909210;29;20053;-62
2021/04/03 06:34:39;;;;;;;5.38;1.30;;;6.30;64.40;;;;;;4909141;29;20119;-62
2021/04/03 06:37:08;;;;;;;2.30;0.95;;;6.40;64.20;;;;;;4909304;29;20117;-62
2021/04/03 06:39:51;;;;;;;7.03;1.02;;;6.40;64.00;;;;;;4910084;29;20248;-62
2021/04/03 06:42:40;;;;;;;7.22;1.30;;;6.50;64.10;;;;;;4909704;29;20053;-63
2021/04/03 06:45:23;;;;;;;8.35;1.38;;;6.60;64.00;;;;;;4909114;29;20059;-62
2021/04/03 06:47:52;;;;;;;12.20;1.95;;;6.70;63.70;;;;;;4908792;29;20060;-63
2021/04/03 06:50:20;;;;;;;8.68;1.85;;;6.70;63.40;;;;;;4909106;29;20048;-63
2021/04/03 06:52:48;;;;;;;11.23;1.67;;;6.60;63.30;;;;;;4908821;29;20344;-62
2021/04/03 06:55:17;;;;;;;7.10;1.75;;;6.50;63.50;;;;;;4908947;29;20060;-62
2021/04/03 06:57:45;;;;;;;3.97;0.95;;;6.40;63.80;;;;;;4909261;29;20048;-62
2021/04/03 07:00:15;;;;;;;2.45;1.02;;;6.40;63.90;;;;;;4905440;29;20071;-63
2021/04/03 07:02:53;;;;;;;3.07;1.00;;;6.20;64.30;;;;;;4908850;29;20205;-62
2021/04/03 07:05:22;;;;;;;1.38;0.60;;;6.00;64.80;;;;;;4908519;29;20051;-62
2021/04/03 07:07:55;;;;;;;9.90;1.90;;;6.00;65.00;;;;;;4909736;29;20064;-62
2021/04/03 07:10:23;;;;;;;6.07;1.45;;;5.90;65.60;;;;;;4907555;29;20286;-62
2021/04/03 07:12:51;;;;;;;7.60;2.08;;;5.90;65.60;;;;;;4908075;29;20064;-62
2021/04/03 07:15:19;;;;;;;2.75;1.23;;;6.00;65.20;;;;;;4908312;29;20049;-62
2021/04/03 07:17:46;;;;;;;5.50;1.80;;;6.10;65.20;;;;;;4909942;29;20260;-62
2021/04/03 07:20:16;;;;;;;5.43;1.77;;;6.10;65.50;;;;;;4908596;29;20056;-62
2021/04/03 07:22:46;;;;;;;5.03;0.70;;;6.20;65.00;;;;;;4909357;29;20108;-62
2021/04/03 07:25:14;;;;;;;13.82;1.30;;;6.40;64.50;;;;;;4908497;29;20251;-62
2021/04/03 07:27:43;;;;;;;8.52;1.40;;;6.60;64.10;;;;;;4907108;29;20120;-62
2021/04/03 07:30:11;;;;;;;3.10;1.23;;;6.70;63.10;;;;;;4920546;29;20131;-63
2021/04/03 07:32:40;;;;;;;5.35;1.90;;;6.80;62.70;;;;;;4906667;29;20063;-63
2021/04/03 07:35:21;;;;;;;5.10;0.98;;;6.90;62.90;;;;;;4906589;29;20243;-62
2021/04/03 07:37:49;;;;;;;5.22;0.90;;;6.90;62.20;;;;;;4906415;29;20052;-63
2021/04/03 07:40:36;;;;;;;8.68;1.27;;;6.90;61.90;;;;;;4905867;29;20060;-63
2021/04/03 07:43:39;;;;;;;5.88;1.17;;;6.80;62.10;;;;;;4906201;29;20083;-63
2021/04/03 07:46:11;;;;;;;3.92;1.10;;;6.90;61.70;;;;;;4906571;29;20072;-62
2021/04/03 07:48:52;;;;;;;5.88;1.38;;;6.90;61.30;;;;;;4906975;29;20060;-62
2021/04/03 07:51:48;;;;;;;3.30;1.33;;;7.00;61.60;;;;;;4906633;29;20137;-62
2021/04/03 07:54:26;;;;;;;8.65;1.60;;;7.00;61.80;;;;;;4906675;29;20153;-62
2021/04/03 07:56:56;;;;;;;2.53;0.60;;;7.00;61.10;;;;;;4906638;29;20128;-62
2021/04/03 07:59:54;;;;;;;9.47;1.23;;;7.00;60.60;;;;;;4905449;29;21280;-62
2021/04/03 08:02:26;;;;;;;4.00;1.45;;;7.10;60.40;;;;;;4902193;29;20293;-62
2021/04/03 08:04:55;;;;;;;7.03;0.80;;;7.10;60.10;;;;;;4905923;29;20048;-63
2021/04/03 08:07:24;;;;;;;5.38;1.20;;;7.10;60.30;;;;;;4905523;29;20121;-63
2021/04/03 08:09:51;;;;;;;9.25;1.17;;;7.10;60.00;;;;;;4907197;29;20124;-63
2021/04/03 08:12:25;;;;;;;4.38;1.38;;;7.00;60.10;;;;;;4900289;29;20243;-61
2021/04/03 08:14:56;;;;;;;3.33;1.05;;;7.00;60.60;;;;;;4907352;29;20063;-63
2021/04/03 08:17:24;;;;;;;5.80;2.08;;;7.10;60.00;;;;;;4922043;29;20771;-63
2021/04/03 08:19:52;;;;;;;4.88;1.73;;;7.20;60.10;;;;;;4907736;29;20096;-63
2021/04/03 08:22:19;;;;;;;6.25;1.10;;;7.20;60.00;;;;;;4906200;29;20277;-63
2021/04/03 08:24:58;;;;;;;2.42;0.65;;;7.30;60.50;;;;;;4907326;29;20151;-62
2021/04/03 08:27:41;;;;;;;8.65;1.58;;;7.40;61.00;;;;;;4906813;29;21053;-62
2021/04/03 08:30:21;;;;;;;8.07;1.40;;;7.50;60.80;;;;;;4906818;29;20286;-63
2021/04/03 08:33:11;;;;;;;5.57;1.50;;;7.70;59.70;;;;;;4909091;29;20078;-62
2021/04/03 08:35:40;;;;;;;4.07;0.90;;;7.70;60.10;;;;;;4909667;29;20330;-62
2021/04/03 08:38:13;;;;;;;9.30;1.00;;;7.80;59.50;;;;;;4909643;29;20114;-62
2021/04/03 08:40:42;;;;;;;11.50;1.90;;;7.90;59.20;;;;;;4908813;29;20071;-63
2021/04/03 08:43:15;;;;;;;2.95;1.02;;;8.00;59.20;;;;;;4906392;29;20058;-62
2021/04/03 08:45:42;;;;;;;6.45;1.52;;;8.00;58.70;;;;;;4906852;29;20072;-63
2021/04/03 08:48:10;;;;;;;7.25;0.90;;;8.20;58.40;;;;;;4906483;29;20239;-62
2021/04/03 08:50:37;;;;;;;4.40;0.82;;;8.20;58.30;;;;;;4906234;29;20213;-61
2021/04/03 08:53:05;;;;;;;3.47;0.95;;;8.20;57.50;;;;;;4906368;29;20056;-62
2021/04/03 08:55:33;;;;;;;9.82;1.15;;;8.30;56.90;;;;;;4906768;29;20120;-62
2021/04/03 08:58:04;;;;;;;4.22;0.88;;;8.40;56.60;;;;;;4907150;29;20363;-62
2021/04/03 09:00:31;;;;;;;;;;;8.40;56.20;;;;;;4901659;29;20059;-62
2021/04/03 09:02:59;;;;;;;6.53;0.93;;;8.50;55.10;;;;;;4906431;29;19927;-62
2021/04/03 09:05:26;;;;;;;5.43;1.63;;;8.60;55.60;;;;;;4907032;29;20063;-63
2021/04/03 09:07:53;;;;;;;8.98;1.52;;;8.70;55.20;;;;;;4906101;29;20057;-62
2021/04/03 09:10:23;;;;;;;4.68;1.67;;;8.80;54.60;;;;;;4899770;29;20052;-64
2021/04/03 09:12:52;;;;;;;5.63;1.20;;;8.80;54.00;;;;;;4914654;29;20080;-62
2021/04/03 09:15:28;;;;;;;7.07;1.15;;;8.90;55.00;;;;;;4905174;29;20051;-63
2021/04/03 09:17:56;;;;;;;2.83;0.93;;;9.00;54.50;;;;;;4904770;29;20120;-63
2021/04/03 09:20:26;;;;;;;7.15;1.23;;;9.10;53.50;;;;;;4904118;29;20428;-63
2021/04/03 09:22:55;;;;;;;4.45;1.02;;;9.20;52.60;;;;;;4905485;29;20101;-63
2021/04/03 09:25:23;;;;;;;3.53;0.65;;;9.40;53.10;;;;;;4919431;29;20100;-61
2021/04/03 09:27:58;;;;;;;5.78;1.83;;;9.60;52.00;;;;;;4904772;29;20060;-62
2021/04/03 09:30:33;;;;;;;5.45;1.05;;;9.70;51.00;;;;;;4904686;29;20060;-62
2021/04/03 09:33:16;;;;;;;6.38;1.10;;;10.00;51.10;;;;;;4904478;29;20052;-62
2021/04/03 09:35:44;;;;;;;13.65;1.42;;;10.30;49.90;;;;;;4905535;29;20077;-62
2021/04/03 09:38:12;;;;;;;7.15;1.20;;;10.80;49.70;;;;;;4903943;29;20274;-63
2021/04/03 09:40:42;;;;;;;3.58;0.70;;;11.10;47.10;;;;;;4905059;29;20063;-62
2021/04/03 09:43:11;;;;;;;5.25;1.25;;;11.50;45.20;;;;;;4904299;29;20322;-63
2021/04/03 09:45:39;;;;;;;14.48;1.83;;;11.80;44.80;;;;;;4903782;29;20059;-63
2021/04/03 09:48:10;;;;;;;10.20;1.40;;;12.30;43.70;;;;;;4904574;29;20052;-63
2021/04/03 09:50:38;;;;;;;8.70;1.95;;;12.80;42.90;;;;;;4903848;29;20111;-62
2021/04/03 09:53:09;;;;;;;8.05;1.15;;;13.40;41.10;;;;;;4904240;29;20119;-63
2021/04/03 09:55:40;;;;;;;5.28;1.75;;;14.10;39.90;;;;;;4905261;29;20048;-63
2021/04/03 09:58:07;;;;;;;3.97;0.98;;;14.50;38.00;;;;;;4903974;29;20391;-63
2021/04/03 10:00:35;;;;;;;3.75;1.02;;;14.80;37.40;;;;;;4900924;29;20049;-63
2021/04/03 10:03:11;;;;;;;5.30;1.20;;;15.30;36.80;;;;;;4904018;29;20068;-62
2021/04/03 10:05:39;;;;;;;6.20;1.02;;;15.50;36.00;;;;;;4906419;29;20711;-63
2021/04/03 10:08:09;;;;;;;4.57;1.15;;;15.20;35.50;;;;;;4906975;29;20060;-62
2021/04/03 10:10:37;;;;;;;3.92;1.25;;;15.60;35.70;;;;;;4905542;29;20061;-63
2021/04/03 10:13:04;;;;;;;5.85;0.93;;;16.10;33.80;;;;;;4907994;29;20112;-62
2021/04/03 10:15:31;;;;;;;2.10;0.60;;;17.00;32.90;;;;;;4906579;29;20355;-63
2021/04/03 10:18:02;;;;;;;6.85;0.88;;;17.90;30.50;;;;;;4907272;29;20277;-63
2021/04/03 10:20:28;;;;;;;7.63;1.85;;;18.90;29.40;;;;;;4906837;29;20116;-63
2021/04/03 10:22:55;;;;;;;5.13;0.98;;;19.50;28.20;;;;;;4907990;29;20130;-62
2021/04/03 10:25:22;;;;;;;4.43;1.02;;;20.10;27.60;;;;;;4905978;29;21507;-63
2021/04/03 10:27:49;;;;;;;2.83;1.10;;;20.60;26.30;;;;;;4906524;29;20048;-62
2021/04/03 10:30:20;;;;;;;3.70;1.25;;;20.70;25.60;;;;;;4906052;29;20233;-63
2021/04/03 10:32:47;;;;;;;3.20;0.93;;;21.20;25.70;;;;;;4909331;29;20052;-63
2021/04/03 10:35:14;;;;;;;6.15;2.08;;;21.80;24.70;;;;;;4910239;29;20079;-62
2021/04/03 10:37:41;;;;;;;5.38;1.33;;;22.60;23.50;;;;;;4910113;29;20079;-62
2021/04/03 10:40:12;;;;;;;3.72;0.88;;;23.20;22.20;;;;;;4910120;29;20044;-62
2021/04/03 10:42:40;;;;;;;6.20;0.98;;;22.00;23.90;;;;;;4909694;29;20057;-62
2021/04/03 10:45:09;;;;;;;8.13;1.15;;;21.90;23.50;;;;;;4909386;29;20054;-62
2021/04/03 10:47:38;;;;;;;3.33;0.80;;;22.80;23.20;;;;;;4910431;29;20104;-63
2021/04/03 10:50:06;;;;;;;3.67;1.25;;;23.40;22.70;;;;;;4909908;29;20076;-63
2021/04/03 10:52:34;;;;;;;9.07;2.75;;;24.00;22.00;;;;;;4908477;29;20114;-63
2021/04/03 10:55:02;;;;;;;6.15;1.27;;;24.40;20.50;;;;;;4909797;29;20063;-63
2021/04/03 10:57:29;;;;;;;2.92;0.73;;;23.30;20.90;;;;;;4909470;29;20067;-63
2021/04/03 10:59:55;;;;;;;4.55;1.15;;;24.10;21.10;;;;;;4909957;29;20123;-62
2021/04/03 11:02:25;;;;;;;2.90;0.80;;;24.50;20.60;;;;;;4904441;29;20524;-62
2021/04/03 11:04:52;;;;;;;3.65;0.70;;;24.40;20.00;;;;;;4907915;29;20120;-63
2021/04/03 11:07:19;;;;;;;2.97;0.93;;;25.30;19.50;;;;;;4907785;29;20049;-63
2021/04/03 11:09:47;;;;;;;8.02;0.93;;;26.60;18.30;;;;;;4902407;29;20149;-63
2021/04/03 11:12:15;;;;;;;2.92;0.80;;;26.00;18.40;;;;;;4907850;29;20064;-63
2021/04/03 11:14:42;;;;;;;3.10;0.80;;;26.50;18.50;;;;;;4908381;29;20279;-63
2021/04/03 11:17:11;;;;;;;3.15;1.17;;;26.70;17.90;;;;;;4906897;29;20045;-63
2021/04/03 11:19:41;;;;;;;2.78;0.68;;;25.60;19.40;;;;;;4905838;29;20104;-62
2021/04/03 11:22:08;;;;;;;3.13;0.88;;;24.10;19.60;;;;;;4906863;29;20428;-63
2021/04/03 11:24:35;;;;;;;5.00;0.98;;;22.50;20.60;;;;;;4908741;29;20053;-63
2021/04/03 11:27:06;;;;;;;3.17;0.57;;;20.40;22.50;;;;;;4907736;29;20088;-63
2021/04/03 11:29:33;;;;;;;5.82;1.58;;;20.90;21.70;;;;;;4907529;29;20052;-62
2021/04/03 11:32:00;;;;;;;3.97;1.00;;;22.50;21.30;;;;;;4908013;29;20051;-63
2021/04/03 11:34:29;;;;;;;3.40;0.60;;;23.60;20.20;;;;;;4907043;29;20044;-63
2021/04/03 11:36:56;;;;;;;6.47;0.70;;;23.80;19.50;;;;;;4908884;29;20052;-62
2021/04/03 11:39:23;;;;;;;3.20;0.88;;;25.10;18.40;;;;;;4906269;29;20124;-63
2021/04/03 11:41:49;;;;;;;2.78;1.08;;;22.80;20.20;;;;;;4908025;29;20101;-63
2021/04/03 11:44:17;;;;;;;2.75;1.08;;;20.50;23.30;;;;;;4908267;29;20056;-63
2021/04/03 11:46:44;;;;;;;6.03;1.02;;;18.60;26.20;;;;;;4906990;29;20068;-62
2021/04/03 11:49:11;;;;;;;3.28;1.38;;;17.00;28.20;;;;;;4906854;29;20371;-63
2021/04/03 11:51:38;;;;;;;3.13;1.20;;;16.30;30.20;;;;;;4907469;29;20104;-62
2021/04/03 11:54:05;;;;;;;4.95;1.48;;;15.90;32.00;;;;;;4909518;29;20045;-63
2021/04/03 11:56:33;;;;;;;2.42;0.90;;;15.40;31.30;;;;;;4910036;29;20056;-62
2021/04/03 11:59:00;;;;;;;2.90;0.80;;;17.00;29.50;;;;;;4908773;29;20040;-62
2021/04/03 12:01:29;;;;;;;3.35;0.95;;;19.60;25.50;;;;;;4906596;29;20048;-63
2021/04/03 12:03:58;;;;;;;2.05;0.65;;;22.10;23.10;;;;;;4908221;29;20048;-61
2021/04/03 12:06:26;;;;;;;3.08;0.82;;;23.30;21.30;;;;;;4908438;29;20053;-62
2021/04/03 12:08:53;;;;;;;3.95;0.90;;;24.50;19.80;;;;;;4908106;29;20084;-62
2021/04/03 12:11:20;;;;;;;5.90;0.85;;;24.30;19.60;;;;;;4907632;29;20134;-63
2021/04/03 12:13:47;;;;;;;4.20;1.15;;;24.10;19.40;;;;;;4908469;29;20068;-63
2021/04/03 12:16:16;;;;;;;2.78;0.85;;;22.10;21.70;;;;;;4908387;29;20104;-63
2021/04/03 12:18:50;;;;;;;2.72;0.88;;;21.00;23.30;;;;;;4921364;29;20060;-63
2021/04/03 12:21:18;;;;;;;3.35;0.77;;;22.10;21.40;;;;;;4908360;29;20344;-63
2021/04/03 12:23:46;;;;;;;5.07;1.42;;;19.50;24.10;;;;;;4908305;29;20052;-63
2021/04/03 12:26:15;;;;;;;4.43;0.95;;;19.30;24.40;;;;;;4907944;29;20064;-62
2021/04/03 12:28:45;;;;;;;1.10;0.50;;;21.30;22.90;;;;;;4922427;29;20127;-63
2021/04/03 12:31:13;;;;;;;2.60;0.60;;;23.30;19.10;;;;;;4908243;29;20060;-62
2021/04/03 12:33:41;;;;;;;5.82;1.20;;;24.80;18.30;;;;;;4907632;29;20048;-62
2021/04/03 12:36:10;;;;;;;2.67;1.08;;;25.30;17.20;;;;;;4906401;29;20060;-62
2021/04/03 12:38:40;;;;;;;3.38;1.10;;;25.60;17.10;;;;;;4907089;29;20053;-62
2021/04/03 12:41:07;;;;;;;;;;;26.20;16.70;;;;;;4907792;29;20063;-63
2021/04/03 12:43:35;;;;;;;4.80;0.80;;;27.20;16.10;;;;;;4906197;29;19923;-62
2021/04/03 12:46:04;;;;;;;1.90;0.73;;;26.30;16.60;;;;;;4906547;29;20057;-62
2021/04/03 12:48:36;;;;;;;2.88;0.77;;;23.30;18.90;;;;;;4907975;29;20052;-63
2021/04/03 12:51:05;;;;;;;3.72;1.15;;;21.20;20.60;;;;;;4908096;29;20056;-62
2021/04/03 12:53:34;;;;;;;2.05;0.50;;;22.10;21.30;;;;;;4912165;29;20060;-62
2021/04/03 12:56:02;;;;;;;2.85;0.80;;;23.00;19.90;;;;;;4904418;29;20397;-63
2021/04/03 12:58:35;;;;;;;3.42;0.80;;;21.60;21.40;;;;;;4905916;29;20052;-64
2021/04/03 13:01:05;;;;;;;4.18;1.10;;;20.40;22.00;;;;;;4902463;29;20052;-61
2021/04/03 13:03:34;;;;;;;3.63;1.20;;;21.90;21.20;;;;;;4904354;29;20092;-61
2021/04/03 13:06:02;;;;;;;8.23;2.15;;;23.40;19.60;;;;;;4905608;29;20083;-63
2021/04/03 13:08:35;;;;;;;3.03;1.10;;;24.20;19.20;;;;;;4906181;29;20277;-64
2021/04/03 13:11:04;;;;;;;4.15;0.80;;;23.20;19.60;;;;;;4920447;29;20378;-63
2021/04/03 13:13:32;;;;;;;3.13;0.88;;;20.40;21.90;;;;;;4920040;29;20243;-63